sensor_id;sensor_type;location;lat;lon;timestamp;pressure;altitude;pressure_sealevel;temperature;humidity
20620;BME280;10469;42.720;23.252;2023-06-05T00:02:16;95371.72;;;14.35;100.00
20620;BME280;10469;42.720;23.252;2023-06-05T00:04:42;95356.75;;;14.27;100.00
20620;BME280;10469;42.720;23.252;2023-06-05T00:07:09;95385.38;;;14.28;100.00
20620;BME280;10469;42.720;23.252;2023-06-05T00:09:34;95378.28;;;14.22;100.00
20620;BME280;10469;42.720;23.252;2023-06-05T00:12:00;95372.28;;;14.20;100.00
20620;BME280;10469;42.720;23.252;2023-06-05T00:14:26;95371.56;;;14.24;100.00
20620;BME280;10469;42.720;23.252;2023-06-05T00:16:51;95384.00;;;14.25;100.00
20620;BME280;10469;42.720;23.252;2023-06-05T00:19:17;95372.06;;;14.21;100.00
20620;BME280;10469;42.720;23.252;2023-06-05T00:21:43;95363.91;;;14.16;100.00
20620;BME280;10469;42.720;23.252;2023-06-05T00:24:08;95379.22;;;14.32;100.00
20620;BME280;10469;42.720;23.252;2023-06-05T00:26:34;95371.88;;;14.28;100.00
20620;BME280;10469;42.720;23.252;2023-06-05T00:29:00;95375.47;;;14.34;100.00
20620;BME280;10469;42.720;23.252;2023-06-05T00:31:28;95383.59;;;14.34;100.00
20620;BME280;10469;42.720;23.252;2023-06-05T00:33:55;95357.38;;;14.12;100.00
20620;BME280;10469;42.720;23.252;2023-06-05T00:36:47;95376.31;;;14.34;100.00
20620;BME280;10469;42.720;23.252;2023-06-05T00:39:16;95366.44;;;14.45;100.00
20620;BME280;10469;42.720;23.252;2023-06-05T00:41:44;95381.13;;;14.49;100.00
20620;BME280;10469;42.720;23.252;2023-06-05T00:44:11;95368.22;;;14.34;100.00
20620;BME280;10469;42.720;23.252;2023-06-05T00:46:38;95370.09;;;14.34;100.00
20620;BME280;10469;42.720;23.252;2023-06-05T00:49:07;95375.47;;;14.34;100.00
20620;BME280;10469;42.720;23.252;2023-06-05T00:51:33;95355.47;;;14.29;100.00
20620;BME280;10469;42.720;23.252;2023-06-05T00:53:59;95369.84;;;14.35;100.00
20620;BME280;10469;42.720;23.252;2023-06-05T00:56:25;95375.72;;;14.32;100.00
20620;BME280;10469;42.720;23.252;2023-06-05T00:58:52;95359.72;;;14.25;100.00
20620;BME280;10469;42.720;23.252;2023-06-05T01:01:40;95344.44;;;14.14;100.00
20620;BME280;10469;42.720;23.252;2023-06-05T01:04:08;95363.75;;;14.45;100.00
20620;BME280;10469;42.720;23.252;2023-06-05T01:06:36;95366.06;;;14.53;100.00
20620;BME280;10469;42.720;23.252;2023-06-05T01:09:06;95361.25;;;14.55;100.00
20620;BME280;10469;42.720;23.252;2023-06-05T01:11:53;95356.84;;;14.49;100.00
20620;BME280;10469;42.720;23.252;2023-06-05T01:14:30;95330.53;;;14.22;100.00
20620;BME280;10469;42.720;23.252;2023-06-05T01:16:57;95344.88;;;14.45;100.00
20620;BME280;10469;42.720;23.252;2023-06-05T01:19:28;95316.41;;;14.15;100.00
20620;BME280;10469;42.720;23.252;2023-06-05T01:22:00;95349.78;;;14.48;100.00
20620;BME280;10469;42.720;23.252;2023-06-05T01:24:26;95345.56;;;14.18;100.00
20620;BME280;10469;42.720;23.252;2023-06-05T01:27:05;95342.31;;;14.16;100.00
20620;BME280;10469;42.720;23.252;2023-06-05T01:32:14;95317.41;;;13.92;100.00
20620;BME280;10469;42.720;23.252;2023-06-05T01:34:44;95322.88;;;13.97;100.00
20620;BME280;10469;42.720;23.252;2023-06-05T01:37:14;95326.97;;;14.00;100.00
20620;BME280;10469;42.720;23.252;2023-06-05T01:39:45;95337.25;;;14.03;100.00
20620;BME280;10469;42.720;23.252;2023-06-05T01:42:13;95333.84;;;14.08;100.00
20620;BME280;10469;42.720;23.252;2023-06-05T01:44:42;95298.06;;;13.78;100.00
20620;BME280;10469;42.720;23.252;2023-06-05T01:47:10;95292.03;;;13.71;100.00
20620;BME280;10469;42.720;23.252;2023-06-05T01:49:36;95347.00;;;14.04;100.00
20620;BME280;10469;42.720;23.252;2023-06-05T01:52:04;95329.09;;;13.98;100.00
20620;BME280;10469;42.720;23.252;2023-06-05T01:54:31;95340.84;;;14.09;100.00
20620;BME280;10469;42.720;23.252;2023-06-05T01:56:59;95299.63;;;13.91;100.00
20620;BME280;10469;42.720;23.252;2023-06-05T01:59:26;95346.06;;;14.15;100.00
20620;BME280;10469;42.720;23.252;2023-06-05T02:02:02;95320.59;;;13.89;100.00
20620;BME280;10469;42.720;23.252;2023-06-05T02:04:29;95348.28;;;14.18;100.00
20620;BME280;10469;42.720;23.252;2023-06-05T02:06:55;95350.81;;;14.25;100.00
20620;BME280;10469;42.720;23.252;2023-06-05T02:09:21;95341.72;;;14.31;100.00
20620;BME280;10469;42.720;23.252;2023-06-05T02:11:47;95338.69;;;14.27;100.00
20620;BME280;10469;42.720;23.252;2023-06-05T02:14:13;95321.72;;;14.10;100.00
20620;BME280;10469;42.720;23.252;2023-06-05T02:16:47;95317.41;;;14.09;100.00
20620;BME280;10469;42.720;23.252;2023-06-05T02:19:13;95322.06;;;14.14;100.00
20620;BME280;10469;42.720;23.252;2023-06-05T02:21:39;95336.41;;;14.19;100.00
20620;BME280;10469;42.720;23.252;2023-06-05T02:24:05;95316.34;;;13.93;100.00
20620;BME280;10469;42.720;23.252;2023-06-05T02:26:32;95327.31;;;13.87;100.00
20620;BME280;10469;42.720;23.252;2023-06-05T02:28:58;95329.75;;;13.88;100.00
20620;BME280;10469;42.720;23.252;2023-06-05T02:31:24;95340.88;;;13.92;100.00
20620;BME280;10469;42.720;23.252;2023-06-05T02:33:55;95326.56;;;13.74;100.00
20620;BME280;10469;42.720;23.252;2023-06-05T02:36:23;95354.41;;;13.80;100.00
20620;BME280;10469;42.720;23.252;2023-06-05T02:38:50;95346.41;;;13.68;100.00
20620;BME280;10469;42.720;23.252;2023-06-05T02:41:19;95339.44;;;13.55;100.00
20620;BME280;10469;42.720;23.252;2023-06-05T02:43:47;95336.28;;;13.59;100.00
20620;BME280;10469;42.720;23.252;2023-06-05T02:46:13;95334.06;;;13.55;100.00
20620;BME280;10469;42.720;23.252;2023-06-05T02:48:38;95343.63;;;13.63;100.00
20620;BME280;10469;42.720;23.252;2023-06-05T02:51:04;95308.69;;;13.35;100.00
20620;BME280;10469;42.720;23.252;2023-06-05T02:53:39;95337.69;;;13.61;100.00
20620;BME280;10469;42.720;23.252;2023-06-05T02:56:05;95332.84;;;13.63;100.00
20620;BME280;10469;42.720;23.252;2023-06-05T02:58:31;95338.25;;;13.63;100.00
20620;BME280;10469;42.720;23.252;2023-06-05T03:01:02;95346.56;;;13.45;100.00
20620;BME280;10469;42.720;23.252;2023-06-05T03:03:29;95334.16;;;13.44;100.00
20620;BME280;10469;42.720;23.252;2023-06-05T03:06:04;95288.31;;;12.98;100.00
20620;BME280;10469;42.720;23.252;2023-06-05T03:08:31;95347.72;;;13.49;100.00
20620;BME280;10469;42.720;23.252;2023-06-05T03:11:02;95306.38;;;13.26;100.00
20620;BME280;10469;42.720;23.252;2023-06-05T03:13:28;95352.09;;;13.38;100.00
20620;BME280;10469;42.720;23.252;2023-06-05T03:15:55;95348.19;;;13.46;100.00
20620;BME280;10469;42.720;23.252;2023-06-05T03:18:31;95342.16;;;13.55;100.00
20620;BME280;10469;42.720;23.252;2023-06-05T03:21:01;95363.81;;;13.61;100.00
20620;BME280;10469;42.720;23.252;2023-06-05T03:23:30;95373.84;;;13.48;100.00
20620;BME280;10469;42.720;23.252;2023-06-05T03:25:56;95365.59;;;13.72;100.00
20620;BME280;10469;42.720;23.252;2023-06-05T03:28:23;95371.25;;;13.87;100.00
20620;BME280;10469;42.720;23.252;2023-06-05T03:30:49;95371.25;;;14.04;100.00
20620;BME280;10469;42.720;23.252;2023-06-05T03:33:15;95371.41;;;14.14;100.00
20620;BME280;10469;42.720;23.252;2023-06-05T03:35:43;95360.47;;;14.04;100.00
20620;BME280;10469;42.720;23.252;2023-06-05T03:38:11;95370.72;;;14.24;100.00
20620;BME280;10469;42.720;23.252;2023-06-05T03:40:37;95374.22;;;14.41;100.00
20620;BME280;10469;42.720;23.252;2023-06-05T03:43:05;95367.63;;;14.49;100.00
20620;BME280;10469;42.720;23.252;2023-06-05T03:45:31;95367.13;;;14.52;100.00
20620;BME280;10469;42.720;23.252;2023-06-05T03:47:57;95361.06;;;14.45;100.00
20620;BME280;10469;42.720;23.252;2023-06-05T03:50:28;95355.84;;;14.55;100.00
20620;BME280;10469;42.720;23.252;2023-06-05T03:52:57;95363.00;;;14.66;100.00
20620;BME280;10469;42.720;23.252;2023-06-05T03:55:30;95363.63;;;14.95;100.00
20620;BME280;10469;42.720;23.252;2023-06-05T03:58:10;95359.75;;;15.08;100.00
20620;BME280;10469;42.720;23.252;2023-06-05T04:00:39;95376.88;;;15.19;100.00
20620;BME280;10469;42.720;23.252;2023-06-05T04:03:04;95373.88;;;15.42;100.00
20620;BME280;10469;42.720;23.252;2023-06-05T04:05:30;95352.41;;;15.30;100.00
20620;BME280;10469;42.720;23.252;2023-06-05T04:07:56;95372.34;;;15.24;100.00
20620;BME280;10469;42.720;23.252;2023-06-05T04:10:22;95375.13;;;15.08;100.00
20620;BME280;10469;42.720;23.252;2023-06-05T04:12:48;95363.31;;;15.14;100.00
20620;BME280;10469;42.720;23.252;2023-06-05T04:15:13;95368.59;;;15.79;100.00
20620;BME280;10469;42.720;23.252;2023-06-05T04:17:39;95338.84;;;15.79;100.00
20620;BME280;10469;42.720;23.252;2023-06-05T04:20:07;95359.13;;;16.14;100.00
20620;BME280;10469;42.720;23.252;2023-06-05T04:22:39;95365.41;;;16.20;100.00
20620;BME280;10469;42.720;23.252;2023-06-05T04:25:05;95357.47;;;16.45;100.00
20620;BME280;10469;42.720;23.252;2023-06-05T04:27:32;95355.03;;;16.07;100.00
20620;BME280;10469;42.720;23.252;2023-06-05T04:29:57;95338.84;;;15.79;100.00
20620;BME280;10469;42.720;23.252;2023-06-05T04:32:23;95336.88;;;16.02;100.00
20620;BME280;10469;42.720;23.252;2023-06-05T04:34:49;95350.88;;;16.36;100.00
20620;BME280;10469;42.720;23.252;2023-06-05T04:37:15;95353.53;;;16.26;100.00
20620;BME280;10469;42.720;23.252;2023-06-05T04:39:41;95342.03;;;16.09;100.00
20620;BME280;10469;42.720;23.252;2023-06-05T04:42:08;95347.25;;;16.15;100.00
20620;BME280;10469;42.720;23.252;2023-06-05T04:44:34;95341.91;;;16.25;100.00
20620;BME280;10469;42.720;23.252;2023-06-05T04:47:02;95341.75;;;16.47;100.00
20620;BME280;10469;42.720;23.252;2023-06-05T04:49:31;95351.94;;;16.72;100.00
20620;BME280;10469;42.720;23.252;2023-06-05T04:51:57;95349.72;;;16.69;100.00
20620;BME280;10469;42.720;23.252;2023-06-05T04:54:24;95349.59;;;16.49;100.00
20620;BME280;10469;42.720;23.252;2023-06-05T04:56:50;95355.09;;;16.59;100.00
20620;BME280;10469;42.720;23.252;2023-06-05T04:59:16;95340.91;;;16.89;100.00
20620;BME280;10469;42.720;23.252;2023-06-05T05:01:41;95355.28;;;16.95;100.00
20620;BME280;10469;42.720;23.252;2023-06-05T05:04:09;95353.09;;;16.87;100.00
20620;BME280;10469;42.720;23.252;2023-06-05T05:06:34;95353.09;;;16.92;100.00
20620;BME280;10469;42.720;23.252;2023-06-05T05:09:00;95353.56;;;17.41;100.00
20620;BME280;10469;42.720;23.252;2023-06-05T05:11:25;95351.13;;;17.55;100.00
20620;BME280;10469;42.720;23.252;2023-06-05T05:13:52;95343.00;;;17.45;100.00
20620;BME280;10469;42.720;23.252;2023-06-05T05:16:17;95344.09;;;17.49;100.00
20620;BME280;10469;42.720;23.252;2023-06-05T05:18:44;95347.34;;;17.61;100.00
20620;BME280;10469;42.720;23.252;2023-06-05T05:21:10;95328.38;;;17.66;100.00
20620;BME280;10469;42.720;23.252;2023-06-05T05:23:35;95337.28;;;17.51;100.00
20620;BME280;10469;42.720;23.252;2023-06-05T05:26:02;95322.09;;;17.40;100.00
20620;BME280;10469;42.720;23.252;2023-06-05T05:28:29;95324.56;;;17.67;100.00
20620;BME280;10469;42.720;23.252;2023-06-05T05:30:54;95329.50;;;17.80;100.00
20620;BME280;10469;42.720;23.252;2023-06-05T05:33:24;95316.72;;;17.91;100.00
20620;BME280;10469;42.720;23.252;2023-06-05T05:35:49;95318.66;;;18.01;100.00
20620;BME280;10469;42.720;23.252;2023-06-05T05:38:15;95342.47;;;18.35;100.00
20620;BME280;10469;42.720;23.252;2023-06-05T05:40:41;95338.16;;;18.34;100.00
20620;BME280;10469;42.720;23.252;2023-06-05T05:43:07;95335.38;;;18.59;100.00
20620;BME280;10469;42.720;23.252;2023-06-05T05:45:33;95326.03;;;19.01;100.00
20620;BME280;10469;42.720;23.252;2023-06-05T05:47:58;95329.22;;;19.18;100.00
20620;BME280;10469;42.720;23.252;2023-06-05T05:50:24;95322.44;;;19.65;100.00
20620;BME280;10469;42.720;23.252;2023-06-05T05:52:49;95305.53;;;19.68;100.00
20620;BME280;10469;42.720;23.252;2023-06-05T05:55:17;95307.66;;;19.76;100.00
20620;BME280;10469;42.720;23.252;2023-06-05T05:57:42;95302.19;;;20.40;100.00
20620;BME280;10469;42.720;23.252;2023-06-05T06:00:08;95304.38;;;20.43;100.00
20620;BME280;10469;42.720;23.252;2023-06-05T06:02:38;95314.03;;;20.30;100.00
20620;BME280;10469;42.720;23.252;2023-06-05T06:05:04;95315.28;;;20.67;100.00
20620;BME280;10469;42.720;23.252;2023-06-05T06:07:31;95306.09;;;21.05;100.00
20620;BME280;10469;42.720;23.252;2023-06-05T06:09:57;95304.81;;;21.22;100.00
20620;BME280;10469;42.720;23.252;2023-06-05T06:12:24;95309.31;;;21.13;100.00
20620;BME280;10469;42.720;23.252;2023-06-05T06:14:50;95311.09;;;19.48;100.00
20620;BME280;10469;42.720;23.252;2023-06-05T06:17:15;95292.97;;;20.07;100.00
20620;BME280;10469;42.720;23.252;2023-06-05T06:19:42;95303.16;;;20.25;100.00
20620;BME280;10469;42.720;23.252;2023-06-05T06:22:07;95314.59;;;20.27;100.00
20620;BME280;10469;42.720;23.252;2023-06-05T06:24:38;95288.03;;;19.79;100.00
20620;BME280;10469;42.720;23.252;2023-06-05T06:27:04;95315.56;;;20.12;100.00
20620;BME280;10469;42.720;23.252;2023-06-05T06:29:30;95300.53;;;20.73;100.00
20620;BME280;10469;42.720;23.252;2023-06-05T06:31:56;95298.53;;;20.25;100.00
20620;BME280;10469;42.720;23.252;2023-06-05T06:34:22;95307.88;;;20.14;100.00
20620;BME280;10469;42.720;23.252;2023-06-05T06:36:48;95301.53;;;20.53;100.00
20620;BME280;10469;42.720;23.252;2023-06-05T06:39:14;95302.91;;;21.22;100.00
20620;BME280;10469;42.720;23.252;2023-06-05T06:41:40;95304.53;;;21.99;100.00
20620;BME280;10469;42.720;23.252;2023-06-05T06:44:05;95302.06;;;21.03;100.00
20620;BME280;10469;42.720;23.252;2023-06-05T06:46:31;95301.44;;;20.63;100.00
20620;BME280;10469;42.720;23.252;2023-06-05T06:48:57;95292.75;;;19.69;100.00
20620;BME280;10469;42.720;23.252;2023-06-05T06:51:22;95300.09;;;19.73;100.00
20620;BME280;10469;42.720;23.252;2023-06-05T06:53:48;95302.75;;;19.78;100.00
20620;BME280;10469;42.720;23.252;2023-06-05T06:56:15;95287.94;;;19.90;100.00
20620;BME280;10469;42.720;23.252;2023-06-05T06:58:42;95295.00;;;20.54;100.00
20620;BME280;10469;42.720;23.252;2023-06-05T07:01:08;95286.38;;;20.42;100.00
20620;BME280;10469;42.720;23.252;2023-06-05T07:03:34;95273.00;;;20.93;100.00
20620;BME280;10469;42.720;23.252;2023-06-05T07:06:01;95294.31;;;21.34;100.00
20620;BME280;10469;42.720;23.252;2023-06-05T07:08:27;95290.19;;;21.56;100.00
20620;BME280;10469;42.720;23.252;2023-06-05T07:10:52;95286.28;;;22.13;100.00
20620;BME280;10469;42.720;23.252;2023-06-05T07:13:20;95276.78;;;21.59;100.00
20620;BME280;10469;42.720;23.252;2023-06-05T07:15:48;95285.53;;;22.08;100.00
20620;BME280;10469;42.720;23.252;2023-06-05T07:18:15;95277.69;;;23.08;100.00
20620;BME280;10469;42.720;23.252;2023-06-05T07:20:40;95275.63;;;23.63;100.00
20620;BME280;10469;42.720;23.252;2023-06-05T07:23:06;95275.53;;;24.36;100.00
20620;BME280;10469;42.720;23.252;2023-06-05T07:25:31;95270.25;;;24.79;100.00
20620;BME280;10469;42.720;23.252;2023-06-05T07:27:58;95280.19;;;25.06;100.00
20620;BME280;10469;42.720;23.252;2023-06-05T07:30:26;95277.72;;;25.36;100.00
20620;BME280;10469;42.720;23.252;2023-06-05T07:32:52;95269.09;;;25.11;100.00
20620;BME280;10469;42.720;23.252;2023-06-05T07:35:19;95294.72;;;24.13;100.00
20620;BME280;10469;42.720;23.252;2023-06-05T07:37:44;95285.56;;;23.73;100.00
20620;BME280;10469;42.720;23.252;2023-06-05T07:40:10;95286.94;;;23.84;100.00
20620;BME280;10469;42.720;23.252;2023-06-05T07:42:38;95297.63;;;23.08;100.00
20620;BME280;10469;42.720;23.252;2023-06-05T07:45:04;95302.41;;;23.52;100.00
20620;BME280;10469;42.720;23.252;2023-06-05T07:47:30;95308.03;;;24.28;100.00
20620;BME280;10469;42.720;23.252;2023-06-05T07:49:59;95295.16;;;24.60;100.00
20620;BME280;10469;42.720;23.252;2023-06-05T07:52:26;95304.16;;;24.29;100.00
20620;BME280;10469;42.720;23.252;2023-06-05T07:54:53;95299.31;;;24.26;100.00
20620;BME280;10469;42.720;23.252;2023-06-05T07:57:18;95312.06;;;23.86;100.00
20620;BME280;10469;42.720;23.252;2023-06-05T07:59:44;95300.97;;;24.59;100.00
20620;BME280;10469;42.720;23.252;2023-06-05T08:02:12;95302.72;;;24.01;100.00
20620;BME280;10469;42.720;23.252;2023-06-05T08:04:37;95311.84;;;23.96;100.00
20620;BME280;10469;42.720;23.252;2023-06-05T08:07:04;95303.81;;;24.22;100.00
20620;BME280;10469;42.720;23.252;2023-06-05T08:09:30;95295.97;;;25.49;100.00
20620;BME280;10469;42.720;23.252;2023-06-05T08:11:55;95303.09;;;25.01;100.00
20620;BME280;10469;42.720;23.252;2023-06-05T08:14:21;95298.22;;;26.34;100.00
20620;BME280;10469;42.720;23.252;2023-06-05T08:16:46;95305.94;;;26.66;100.00
20620;BME280;10469;42.720;23.252;2023-06-05T08:19:12;95303.50;;;27.41;100.00
20620;BME280;10469;42.720;23.252;2023-06-05T08:21:37;95297.81;;;27.97;100.00
20620;BME280;10469;42.720;23.252;2023-06-05T08:24:03;95285.78;;;26.92;100.00
20620;BME280;10469;42.720;23.252;2023-06-05T08:26:29;95279.66;;;27.75;100.00
20620;BME280;10469;42.720;23.252;2023-06-05T08:28:54;95297.56;;;27.60;100.00
20620;BME280;10469;42.720;23.252;2023-06-05T08:31:20;95303.03;;;27.69;100.00
20620;BME280;10469;42.720;23.252;2023-06-05T08:33:46;95305.84;;;27.60;100.00
20620;BME280;10469;42.720;23.252;2023-06-05T08:36:11;95313.81;;;26.12;100.00
20620;BME280;10469;42.720;23.252;2023-06-05T08:38:37;95300.44;;;28.47;100.00
20620;BME280;10469;42.720;23.252;2023-06-05T08:41:04;95301.16;;;29.39;95.85
20620;BME280;10469;42.720;23.252;2023-06-05T08:43:31;95296.75;;;28.43;94.82
20620;BME280;10469;42.720;23.252;2023-06-05T08:45:57;95303.78;;;26.81;100.00
20620;BME280;10469;42.720;23.252;2023-06-05T08:48:24;95303.59;;;26.30;100.00
20620;BME280;10469;42.720;23.252;2023-06-05T08:50:51;95305.75;;;27.78;100.00
20620;BME280;10469;42.720;23.252;2023-06-05T08:53:17;95299.00;;;28.08;98.51
20620;BME280;10469;42.720;23.252;2023-06-05T08:55:46;95297.41;;;25.46;100.00
20620;BME280;10469;42.720;23.252;2023-06-05T08:58:13;95309.69;;;24.61;100.00
20620;BME280;10469;42.720;23.252;2023-06-05T09:00:39;95302.63;;;24.15;100.00
20620;BME280;10469;42.720;23.252;2023-06-05T09:03:05;95288.59;;;24.61;100.00
20620;BME280;10469;42.720;23.252;2023-06-05T09:05:32;95306.31;;;25.03;100.00
20620;BME280;10469;42.720;23.252;2023-06-05T09:07:58;95295.19;;;25.74;100.00
20620;BME280;10469;42.720;23.252;2023-06-05T09:10:26;95308.03;;;24.28;100.00
20620;BME280;10469;42.720;23.252;2023-06-05T09:13:03;95303.72;;;24.98;100.00
20620;BME280;10469;42.720;23.252;2023-06-05T09:15:34;95305.56;;;25.12;100.00
20620;BME280;10469;42.720;23.252;2023-06-05T09:20:37;95300.03;;;27.83;100.00
20620;BME280;10469;42.720;23.252;2023-06-05T09:23:04;95288.00;;;25.30;100.00
20620;BME280;10469;42.720;23.252;2023-06-05T09:25:58;95306.22;;;25.83;100.00
20620;BME280;10469;42.720;23.252;2023-06-05T09:28:24;95295.09;;;27.46;100.00
20620;BME280;10469;42.720;23.252;2023-06-05T09:30:57;95291.50;;;27.46;100.00
20620;BME280;10469;42.720;23.252;2023-06-05T09:33:25;95294.00;;;27.09;100.00
20620;BME280;10469;42.720;23.252;2023-06-05T09:36:11;95289.84;;;26.30;100.00
20620;BME280;10469;42.720;23.252;2023-06-05T09:38:41;95284.91;;;26.70;100.00
20620;BME280;10469;42.720;23.252;2023-06-05T09:41:08;95277.09;;;25.73;100.00
20620;BME280;10469;42.720;23.252;2023-06-05T09:43:35;95285.50;;;25.77;100.00
20620;BME280;10469;42.720;23.252;2023-06-05T09:46:10;95283.44;;;25.83;100.00
20620;BME280;10469;42.720;23.252;2023-06-05T09:48:36;95270.31;;;26.79;100.00
20620;BME280;10469;42.720;23.252;2023-06-05T09:51:16;95280.97;;;24.98;100.00
20620;BME280;10469;42.720;23.252;2023-06-05T09:53:47;95292.44;;;23.70;100.00
20620;BME280;10469;42.720;23.252;2023-06-05T09:56:14;95258.44;;;25.10;100.00
20620;BME280;10469;42.720;23.252;2023-06-05T09:58:50;95272.09;;;25.93;100.00
20620;BME280;10469;42.720;23.252;2023-06-05T10:01:18;95268.06;;;25.82;100.00
20620;BME280;10469;42.720;23.252;2023-06-05T10:03:51;95266.06;;;26.81;100.00
20620;BME280;10469;42.720;23.252;2023-06-05T10:06:18;95251.88;;;26.70;100.00
20620;BME280;10469;42.720;23.252;2023-06-05T10:08:49;95273.31;;;26.94;99.74
20620;BME280;10469;42.720;23.252;2023-06-05T10:11:16;95262.78;;;27.56;96.84
20620;BME280;10469;42.720;23.252;2023-06-05T10:13:42;95263.25;;;27.99;93.53
20620;BME280;10469;42.720;23.252;2023-06-05T10:16:09;95249.94;;;25.72;100.00
20620;BME280;10469;42.720;23.252;2023-06-05T10:18:34;95262.06;;;25.45;100.00
20620;BME280;10469;42.720;23.252;2023-06-05T10:21:01;95255.91;;;25.31;100.00
20620;BME280;10469;42.720;23.252;2023-06-05T10:23:28;95247.53;;;25.70;100.00
20620;BME280;10469;42.720;23.252;2023-06-05T10:25:54;95262.38;;;26.21;100.00
20620;BME280;10469;42.720;23.252;2023-06-05T10:28:38;95265.34;;;26.63;100.00
20620;BME280;10469;42.720;23.252;2023-06-05T10:31:25;95282.38;;;26.48;100.00
20620;BME280;10469;42.720;23.252;2023-06-05T10:34:18;95266.28;;;25.94;100.00
20620;BME280;10469;42.720;23.252;2023-06-05T10:39:31;95255.13;;;24.90;100.00
20620;BME280;10469;42.720;23.252;2023-06-05T10:41:58;95260.72;;;24.14;100.00
20620;BME280;10469;42.720;23.252;2023-06-05T10:44:42;95244.91;;;25.13;100.00
20620;BME280;10469;42.720;23.252;2023-06-05T10:52:49;95246.09;;;24.50;100.00
20620;BME280;10469;42.720;23.252;2023-06-05T10:55:15;95249.91;;;24.71;100.00
20620;BME280;10469;42.720;23.252;2023-06-05T10:58:07;95251.03;;;23.86;100.00
20620;BME280;10469;42.720;23.252;2023-06-05T11:00:34;95231.91;;;23.72;100.00
20620;BME280;10469;42.720;23.252;2023-06-05T11:03:00;95227.88;;;24.94;100.00
20620;BME280;10469;42.720;23.252;2023-06-05T11:05:27;95231.63;;;26.19;100.00
20620;BME280;10469;42.720;23.252;2023-06-05T11:10:36;95218.47;;;25.52;100.00
20620;BME280;10469;42.720;23.252;2023-06-05T11:13:02;95222.31;;;25.86;100.00
20620;BME280;10469;42.720;23.252;2023-06-05T11:15:35;95233.25;;;25.16;100.00
20620;BME280;10469;42.720;23.252;2023-06-05T11:18:26;95224.47;;;24.40;100.00
20620;BME280;10469;42.720;23.252;2023-06-05T11:20:51;95224.53;;;24.03;100.00
20620;BME280;10469;42.720;23.252;2023-06-05T11:23:17;95221.31;;;24.33;100.00
20620;BME280;10469;42.720;23.252;2023-06-05T11:25:42;95212.88;;;24.20;100.00
20620;BME280;10469;42.720;23.252;2023-06-05T11:28:08;95216.69;;;23.80;100.00
20620;BME280;10469;42.720;23.252;2023-06-05T11:30:45;95217.00;;;23.64;100.00
20620;BME280;10469;42.720;23.252;2023-06-05T11:33:15;95211.41;;;24.14;100.00
20620;BME280;10469;42.720;23.252;2023-06-05T11:35:46;95217.88;;;24.18;100.00
20620;BME280;10469;42.720;23.252;2023-06-05T11:38:17;95215.63;;;23.67;100.00
20620;BME280;10469;42.720;23.252;2023-06-05T11:40:43;95204.53;;;23.94;100.00
20620;BME280;10469;42.720;23.252;2023-06-05T11:43:11;95197.44;;;23.93;100.00
20620;BME280;10469;42.720;23.252;2023-06-05T11:45:39;95197.97;;;23.59;100.00
20620;BME280;10469;42.720;23.252;2023-06-05T11:48:12;95210.06;;;23.81;100.00
20620;BME280;10469;42.720;23.252;2023-06-05T11:50:40;95200.34;;;23.74;100.00
20620;BME280;10469;42.720;23.252;2023-06-05T11:53:17;95200.00;;;23.67;100.00
20620;BME280;10469;42.720;23.252;2023-06-05T11:55:43;95203.22;;;23.69;100.00
20620;BME280;10469;42.720;23.252;2023-06-05T11:58:28;95186.44;;;23.48;100.00
20620;BME280;10469;42.720;23.252;2023-06-05T12:04:07;95183.66;;;23.40;100.00
20620;BME280;10469;42.720;23.252;2023-06-05T12:06:40;95193.72;;;23.31;100.00
20620;BME280;10469;42.720;23.252;2023-06-05T12:09:08;95202.56;;;23.27;100.00
20620;BME280;10469;42.720;23.252;2023-06-05T12:11:35;95195.44;;;23.04;100.00
20620;BME280;10469;42.720;23.252;2023-06-05T12:14:00;95188.91;;;23.50;100.00
20620;BME280;10469;42.720;23.252;2023-06-05T12:16:33;95188.25;;;23.53;100.00
20620;BME280;10469;42.720;23.252;2023-06-05T12:19:00;95176.34;;;23.49;100.00
20620;BME280;10469;42.720;23.252;2023-06-05T12:21:27;95181.25;;;23.38;100.00
20620;BME280;10469;42.720;23.252;2023-06-05T12:24:01;95163.25;;;23.91;100.00
20620;BME280;10469;42.720;23.252;2023-06-05T12:26:27;95165.09;;;24.04;100.00
20620;BME280;10469;42.720;23.252;2023-06-05T12:29:05;95145.56;;;24.37;100.00
20620;BME280;10469;42.720;23.252;2023-06-05T12:31:36;95165.19;;;24.52;100.00
20620;BME280;10469;42.720;23.252;2023-06-05T12:34:04;95156.78;;;24.49;100.00
20620;BME280;10469;42.720;23.252;2023-06-05T12:36:30;95148.91;;;24.25;100.00
20620;BME280;10469;42.720;23.252;2023-06-05T12:39:01;95148.63;;;24.35;100.00
20620;BME280;10469;42.720;23.252;2023-06-05T12:41:29;95144.59;;;24.33;100.00
20620;BME280;10469;42.720;23.252;2023-06-05T12:44:02;95146.41;;;24.06;100.00
20620;BME280;10469;42.720;23.252;2023-06-05T12:46:30;95136.38;;;23.93;100.00
20620;BME280;10469;42.720;23.252;2023-06-05T12:48:56;95131.66;;;23.85;100.00
20620;BME280;10469;42.720;23.252;2023-06-05T12:51:24;95127.31;;;24.23;100.00
20620;BME280;10469;42.720;23.252;2023-06-05T12:53:54;95126.28;;;24.42;100.00
20620;BME280;10469;42.720;23.252;2023-06-05T12:56:19;95129.72;;;24.25;100.00
20620;BME280;10469;42.720;23.252;2023-06-05T12:58:51;95136.28;;;24.07;100.00
20620;BME280;10469;42.720;23.252;2023-06-05T13:01:16;95125.03;;;23.86;100.00
20620;BME280;10469;42.720;23.252;2023-06-05T13:03:42;95128.53;;;23.77;100.00
20620;BME280;10469;42.720;23.252;2023-06-05T13:06:08;95115.19;;;24.16;100.00